Time;durP1;ratioP1;P1;durP2;ratioP2;P2;SDS_P1;SDS_P2;PMS_P1;PMS_P2;Temp;Humidity;BMP_temperature;BMP_pressure;BME280_temperature;BME280_humidity;BME280_pressure;Samples;Min_cycle;Max_cycle;Signal;HPM_P1;HPM_P2
2023/03/02 00:02:14;;;;;;;16.20;11.67;;;0.40;99.90;;;;;;5001215;28;20196;-85
2023/03/02 00:04:44;;;;;;;17.27;13.17;;;0.40;99.90;;;;;;5019011;28;20168;-85
2023/03/02 00:07:14;;;;;;;19.43;13.07;;;0.30;99.90;;;;;;5001301;28;20254;-85
2023/03/02 00:09:41;;;;;;;14.87;12.17;;;0.30;99.90;;;;;;5001220;28;20201;-85
2023/03/02 00:12:08;;;;;;;18.70;12.80;;;0.30;99.90;;;;;;5002829;28;20196;-85
2023/03/02 00:14:34;;;;;;;16.43;13.17;;;0.20;99.90;;;;;;5003318;28;20176;-85
2023/03/02 00:17:01;;;;;;;17.60;12.87;;;0.20;99.90;;;;;;5011635;28;20202;-85
2023/03/02 00:19:27;;;;;;;19.70;13.37;;;0.00;99.90;;;;;;5004127;28;20179;-85
2023/03/02 00:21:52;;;;;;;16.97;13.37;;;0.00;99.90;;;;;;5003080;28;20253;-85
2023/03/02 00:24:18;;;;;;;19.57;12.90;;;0.00;99.90;;;;;;5003031;28;20257;-85
2023/03/02 00:26:44;;;;;;;14.53;11.93;;;0.00;99.90;;;;;;5001002;28;20176;-85
2023/03/02 00:29:10;;;;;;;22.33;13.03;;;0.00;99.90;;;;;;5019585;28;20583;-85
2023/03/02 00:31:37;;;;;;;17.80;13.23;;;0.00;99.90;;;;;;5002574;28;20183;-85
2023/03/02 00:34:03;;;;;;;17.17;12.60;;;-0.10;99.90;;;;;;5003779;28;20534;-85
2023/03/02 00:36:29;;;;;;;19.27;13.17;;;-0.10;99.90;;;;;;5003457;28;20179;-84
2023/03/02 00:38:56;;;;;;;14.43;12.00;;;-0.10;99.90;;;;;;5003252;28;20214;-84
2023/03/02 00:41:22;;;;;;;19.40;13.43;;;-0.10;99.90;;;;;;5003695;28;20183;-84
2023/03/02 00:43:49;;;;;;;18.30;12.70;;;0.00;99.90;;;;;;4999388;28;20264;-84
2023/03/02 00:46:17;;;;;;;15.93;12.83;;;-0.10;99.90;;;;;;4999460;28;20176;-84
2023/03/02 00:48:43;;;;;;;16.93;12.47;;;0.00;99.90;;;;;;5000637;28;20180;-84
2023/03/02 00:51:10;;;;;;;16.90;12.57;;;0.00;99.90;;;;;;5001517;28;20183;-83
2023/03/02 00:53:36;;;;;;;17.43;12.33;;;0.10;99.90;;;;;;5000927;28;20582;-83
2023/03/02 00:56:03;;;;;;;16.63;12.43;;;0.10;99.90;;;;;;5001373;28;20249;-83
2023/03/02 00:58:30;;;;;;;17.77;12.23;;;0.00;99.90;;;;;;5001245;28;20184;-83
2023/03/02 01:00:56;;;;;;;16.57;12.47;;;0.00;99.90;;;;;;5019420;28;20211;-83
2023/03/02 01:03:22;;;;;;;18.93;12.00;;;0.00;99.90;;;;;;5001938;28;20294;-83
2023/03/02 01:05:48;;;;;;;14.20;12.07;;;0.00;99.90;;;;;;5003347;28;20172;-83
2023/03/02 01:08:14;;;;;;;18.37;12.93;;;0.00;99.90;;;;;;5003429;28;20206;-84
2023/03/02 01:10:39;;;;;;;18.67;12.70;;;-0.10;99.90;;;;;;5004374;28;20180;-84
2023/03/02 01:13:05;;;;;;;15.83;12.80;;;-0.20;99.90;;;;;;5005325;28;20199;-84
2023/03/02 01:15:32;;;;;;;15.30;11.80;;;-0.20;99.90;;;;;;5000009;28;20608;-84
2023/03/02 01:17:59;;;;;;;14.67;12.03;;;-0.30;99.90;;;;;;4999560;28;20184;-83
2023/03/02 01:20:25;;;;;;;16.27;12.30;;;-0.30;99.90;;;;;;5000439;28;20190;-83
2023/03/02 01:22:51;;;;;;;17.40;12.27;;;-0.30;99.90;;;;;;5001141;28;20239;-83
2023/03/02 01:25:16;;;;;;;16.37;12.40;;;-0.40;99.90;;;;;;5001718;28;20203;-83
2023/03/02 01:27:42;;;;;;;15.20;12.17;;;-0.40;99.90;;;;;;5002702;28;20550;-83
2023/03/02 01:30:09;;;;;;;15.90;12.80;;;-0.40;99.90;;;;;;5003276;28;20180;-83
2023/03/02 01:32:34;;;;;;;14.70;12.33;;;-0.50;99.90;;;;;;5002895;28;20208;-84
2023/03/02 01:35:00;;;;;;;17.97;12.43;;;-0.60;99.90;;;;;;5003223;28;20194;-83
2023/03/02 01:37:26;;;;;;;14.60;11.70;;;-0.80;99.90;;;;;;5003181;28;20352;-83
2023/03/02 01:39:51;;;;;;;14.73;12.43;;;-0.80;99.90;;;;;;5001450;28;20179;-83
2023/03/02 01:42:18;;;;;;;17.63;13.70;;;-0.80;99.90;;;;;;5002869;28;20195;-83
2023/03/02 01:44:48;;;;;;;16.60;13.70;;;-0.80;99.90;;;;;;5004670;28;20272;-83
2023/03/02 01:47:37;;;;;;;21.07;13.50;;;-0.80;99.90;;;;;;5005520;28;20183;-84
2023/03/02 01:50:21;;;;;;;16.47;12.37;;;-0.90;99.90;;;;;;5005689;28;20180;-83
2023/03/02 01:52:48;;;;;;;15.57;12.17;;;-1.00;99.90;;;;;;5006014;28;20207;-83
2023/03/02 01:55:18;;;;;;;15.53;12.53;;;-1.10;99.90;;;;;;5024001;28;20199;-83
2023/03/02 01:57:46;;;;;;;16.10;12.53;;;-1.10;99.90;;;;;;5003901;28;20183;-83
2023/03/02 02:00:19;;;;;;;15.40;12.97;;;-1.10;99.90;;;;;;5016882;28;20180;-82
2023/03/02 02:02:45;;;;;;;19.37;14.50;;;-1.20;99.90;;;;;;4999308;28;20207;-82
2023/03/02 02:05:18;;;;;;;14.70;11.97;;;-1.20;99.90;;;;;;5019233;28;20164;-84
2023/03/02 02:07:44;;;;;;;18.60;13.00;;;-1.20;99.90;;;;;;5002384;28;20172;-84
2023/03/02 02:10:11;;;;;;;15.60;12.60;;;-1.10;99.90;;;;;;5003330;28;20176;-84
2023/03/02 02:12:37;;;;;;;17.13;12.77;;;-1.00;99.90;;;;;;5003615;28;20684;-84
2023/03/02 02:15:03;;;;;;;14.53;12.67;;;-0.90;99.90;;;;;;5005559;28;20271;-84
2023/03/02 02:17:30;;;;;;;14.47;12.37;;;-0.90;99.90;;;;;;5006672;28;20322;-84
2023/03/02 02:20:30;;;;;;;17.03;13.00;;;-0.80;99.90;;;;;;5006865;28;20206;-84
2023/03/02 02:23:32;;;;;;;15.53;12.73;;;-0.90;99.90;;;;;;5021904;28;20242;-84
2023/03/02 02:26:12;;;;;;;14.03;11.93;;;-0.90;99.90;;;;;;5005241;28;20599;-84
2023/03/02 02:28:40;;;;;;;15.80;12.73;;;-0.80;99.90;;;;;;5013257;28;20262;-84
2023/03/02 02:31:12;;;;;;;13.40;12.00;;;-0.90;99.90;;;;;;5013906;28;20371;-84
2023/03/02 02:33:42;;;;;;;16.77;12.50;;;-0.90;99.90;;;;;;5025224;28;20196;-83
2023/03/02 02:36:15;;;;;;;14.30;12.73;;;-1.00;99.90;;;;;;5005583;28;20270;-84
2023/03/02 02:38:46;;;;;;;14.20;12.30;;;-1.10;99.90;;;;;;5022989;28;20160;-84
2023/03/02 02:41:19;;;;;;;13.63;12.23;;;-1.20;99.90;;;;;;5005075;28;20270;-83
2023/03/02 02:43:44;;;;;;;16.00;12.43;;;-1.10;99.90;;;;;;5004767;28;20273;-83
2023/03/02 02:46:11;;;;;;;18.37;13.03;;;-1.10;99.90;;;;;;5005483;28;20708;-83
2023/03/02 02:48:37;;;;;;;16.33;13.17;;;-1.10;99.90;;;;;;5005244;28;20206;-83
2023/03/02 02:51:07;;;;;;;14.47;12.10;;;-1.10;99.90;;;;;;5004977;28;20274;-83
2023/03/02 02:53:58;;;;;;;13.90;12.40;;;-1.20;99.90;;;;;;5022281;28;20199;-83
2023/03/02 02:56:30;;;;;;;16.60;13.50;;;-1.30;99.90;;;;;;5004313;28;20639;-82
2023/03/02 02:59:01;;;;;;;16.27;12.83;;;-1.30;99.90;;;;;;5004758;28;20193;-82
2023/03/02 03:01:27;;;;;;;16.87;13.27;;;-1.30;99.90;;;;;;5022926;28;20174;-83
2023/03/02 03:03:56;;;;;;;14.97;12.20;;;-1.30;99.90;;;;;;5003657;28;20211;-83
2023/03/02 03:06:26;;;;;;;13.40;12.00;;;-1.20;99.90;;;;;;5003892;28;20171;-85
2023/03/02 03:08:55;;;;;;;13.03;10.83;;;-1.10;99.90;;;;;;5004914;28;20180;-85
2023/03/02 03:11:25;;;;;;;16.07;11.97;;;-1.10;99.90;;;;;;5022054;28;20215;-86
2023/03/02 03:14:03;;;;;;;15.80;12.30;;;-1.10;99.90;;;;;;5003513;28;20199;-85
2023/03/02 03:16:30;;;;;;;15.30;11.83;;;-1.10;99.90;;;;;;5026990;28;20251;-86
2023/03/02 03:19:00;;;;;;;15.87;11.90;;;-1.00;99.90;;;;;;5008544;28;20648;-83
2023/03/02 03:21:27;;;;;;;18.03;12.27;;;-1.10;99.90;;;;;;5006119;28;20673;-85
2023/03/02 03:23:53;;;;;;;14.07;11.40;;;-1.10;99.90;;;;;;5006587;28;20226;-85
2023/03/02 03:26:19;;;;;;;14.13;12.63;;;-1.00;99.90;;;;;;5006662;28;20172;-85
2023/03/02 03:28:45;;;;;;;15.67;12.73;;;-1.10;99.90;;;;;;5006428;28;20207;-85
2023/03/02 03:31:11;;;;;;;15.33;12.13;;;-1.10;99.90;;;;;;5006942;28;20176;-86
2023/03/02 03:33:37;;;;;;;20.73;12.83;;;-1.10;99.90;;;;;;5007095;28;20775;-86
2023/03/02 03:36:03;;;;;;;13.63;11.77;;;-1.10;99.90;;;;;;5006792;28;20184;-86
2023/03/02 03:38:29;;;;;;;15.77;12.50;;;-1.10;99.90;;;;;;5005745;28;20176;-86
2023/03/02 03:40:54;;;;;;;16.03;12.27;;;-1.20;99.90;;;;;;5024198;28;20195;-86
2023/03/02 03:43:22;;;;;;;14.27;12.60;;;-1.20;99.90;;;;;;5007175;28;20208;-86
2023/03/02 03:45:50;;;;;;;14.00;12.27;;;-1.20;99.90;;;;;;5007210;28;20172;-86
2023/03/02 03:48:16;;;;;;;19.17;12.80;;;-1.20;99.90;;;;;;5006986;28;20175;-86
2023/03/02 03:50:42;;;;;;;14.87;12.33;;;-1.20;99.90;;;;;;5006831;28;20203;-86
2023/03/02 03:53:07;;;;;;;15.33;12.77;;;-1.30;99.90;;;;;;5008398;28;20226;-85
2023/03/02 03:55:33;;;;;;;13.50;12.10;;;-1.40;99.90;;;;;;5037050;28;20180;-85
2023/03/02 03:57:59;;;;;;;14.20;12.60;;;-1.40;99.90;;;;;;5013744;28;20192;-86
2023/03/02 04:00:25;;;;;;;13.70;12.10;;;-1.40;99.90;;;;;;5006728;28;20247;-86
2023/03/02 04:02:50;;;;;;;13.70;12.30;;;-1.40;99.90;;;;;;5023982;28;20242;-86
2023/03/02 04:05:16;;;;;;;14.20;11.63;;;-1.40;99.90;;;;;;5007478;28;20325;-86
2023/03/02 04:07:42;;;;;;;13.37;12.07;;;-1.40;99.90;;;;;;5007548;28;20168;-84
2023/03/02 04:10:09;;;;;;;13.47;11.87;;;-1.50;99.90;;;;;;5005547;28;20191;-83
2023/03/02 04:12:39;;;;;;;14.10;11.70;;;-1.50;99.90;;;;;;5005038;28;20199;-83
2023/03/02 04:15:07;;;;;;;13.43;12.03;;;-1.50;99.90;;;;;;5001548;28;20664;-87
2023/03/02 04:17:33;;;;;;;14.10;12.73;;;-1.50;99.90;;;;;;5003281;28;20183;-84
2023/03/02 04:19:59;;;;;;;14.57;12.10;;;-1.50;99.90;;;;;;5002908;28;20589;-84
2023/03/02 04:22:26;;;;;;;14.00;12.60;;;-1.60;99.90;;;;;;5003701;28;20226;-84
2023/03/02 04:24:51;;;;;;;15.30;12.27;;;-1.60;99.90;;;;;;5003947;28;20616;-85
2023/03/02 04:27:18;;;;;;;14.63;11.50;;;-1.60;99.90;;;;;;5001321;28;20211;-84
2023/03/02 04:29:44;;;;;;;16.97;13.37;;;-1.70;99.90;;;;;;5001438;28;20208;-83
2023/03/02 04:32:10;;;;;;;16.07;12.80;;;-1.70;99.90;;;;;;5001930;28;20203;-82
2023/03/02 04:34:36;;;;;;;17.97;12.93;;;-1.70;99.90;;;;;;5002453;28;20537;-82
2023/03/02 04:37:02;;;;;;;15.57;12.53;;;-1.80;99.90;;;;;;5003052;28;20183;-83
2023/03/02 04:39:28;;;;;;;18.10;13.37;;;-1.80;99.90;;;;;;5002165;28;20183;-83
2023/03/02 04:41:54;;;;;;;13.63;12.20;;;-1.80;99.90;;;;;;5002256;28;20287;-82
2023/03/02 04:44:20;;;;;;;16.10;13.20;;;-1.90;99.90;;;;;;5020024;28;20695;-83
2023/03/02 04:46:47;;;;;;;16.37;13.17;;;-1.90;99.90;;;;;;5019966;28;20168;-83
2023/03/02 04:49:15;;;;;;;14.63;12.90;;;-1.90;99.90;;;;;;5001927;28;20183;-83
2023/03/02 04:51:43;;;;;;;14.90;13.30;;;-2.00;99.90;;;;;;5021098;28;20195;-83
2023/03/02 04:54:26;;;;;;;15.50;13.23;;;-2.00;99.90;;;;;;5003257;28;20182;-83
2023/03/02 04:56:52;;;;;;;15.87;12.80;;;-2.00;99.90;;;;;;5002979;28;20171;-83
2023/03/02 04:59:22;;;;;;;14.40;12.50;;;-2.10;99.90;;;;;;5003137;28;20271;-83
2023/03/02 05:01:48;;;;;;;15.17;12.43;;;-2.10;99.90;;;;;;5003842;28;20184;-83
2023/03/02 05:04:14;;;;;;;14.63;12.87;;;-2.10;99.90;;;;;;5002484;28;20695;-83
2023/03/02 05:06:40;;;;;;;15.30;12.80;;;-2.10;99.90;;;;;;5001991;28;20267;-83
2023/03/02 05:09:06;;;;;;;17.60;13.53;;;-2.00;99.90;;;;;;5001982;28;20707;-83
2023/03/02 05:11:33;;;;;;;15.37;13.57;;;-2.00;99.90;;;;;;5001274;28;20176;-83
2023/03/02 05:14:01;;;;;;;17.47;12.90;;;-2.00;99.90;;;;;;5001850;28;20184;-84
2023/03/02 05:16:30;;;;;;;14.73;13.27;;;-1.90;99.90;;;;;;5001374;28;20195;-83
2023/03/02 05:18:58;;;;;;;12.90;11.73;;;-1.80;99.90;;;;;;5019440;28;20172;-83
2023/03/02 05:21:24;;;;;;;15.27;12.13;;;-1.70;99.90;;;;;;5019929;28;20187;-83
2023/03/02 05:23:51;;;;;;;13.33;11.93;;;-1.60;99.90;;;;;;5002498;28;20682;-83
2023/03/02 05:26:17;;;;;;;13.70;12.07;;;-1.60;99.90;;;;;;5000676;28;20233;-82
2023/03/02 05:28:43;;;;;;;14.10;12.20;;;-1.60;99.90;;;;;;5001138;28;20180;-83
2023/03/02 05:31:17;;;;;;;15.50;12.13;;;-1.40;99.90;;;;;;5001490;28;20180;-83
2023/03/02 05:33:42;;;;;;;13.83;12.40;;;-1.40;99.90;;;;;;5002377;28;20195;-83
2023/03/02 05:36:08;;;;;;;12.93;11.60;;;-1.40;99.90;;;;;;5005437;28;20259;-82
2023/03/02 05:38:34;;;;;;;13.67;12.30;;;-1.30;99.90;;;;;;5005739;28;20179;-84
2023/03/02 05:41:00;;;;;;;21.33;11.97;;;-1.30;99.90;;;;;;5006265;28;20183;-82
2023/03/02 05:43:25;;;;;;;16.63;13.07;;;-1.30;99.90;;;;;;5001472;28;20238;-82
2023/03/02 05:45:51;;;;;;;13.37;11.97;;;-1.20;99.90;;;;;;5000985;28;20546;-82
2023/03/02 05:48:17;;;;;;;12.87;11.00;;;-1.20;99.90;;;;;;5017646;28;20254;-82
2023/03/02 05:50:43;;;;;;;13.63;11.17;;;-1.20;99.90;;;;;;5000894;28;20178;-82
2023/03/02 05:53:09;;;;;;;15.90;12.67;;;-1.20;99.90;;;;;;5000412;28;20282;-82
2023/03/02 05:55:35;;;;;;;14.37;12.03;;;-1.20;99.90;;;;;;5000384;28;20679;-82
2023/03/02 05:58:06;;;;;;;12.90;11.60;;;-1.20;99.90;;;;;;5019618;28;20179;-82
2023/03/02 06:00:32;;;;;;;14.43;11.97;;;-1.20;99.90;;;;;;5000623;28;20230;-83
2023/03/02 06:02:57;;;;;;;13.90;11.73;;;-1.30;99.90;;;;;;5017167;28;20668;-83
2023/03/02 06:05:23;;;;;;;15.83;13.27;;;-1.40;99.90;;;;;;4999204;28;20549;-83
2023/03/02 06:07:49;;;;;;;13.57;12.20;;;-1.30;99.90;;;;;;5016370;28;20247;-83
2023/03/02 06:10:15;;;;;;;14.83;12.00;;;-1.40;99.90;;;;;;4998946;28;20226;-82
2023/03/02 06:12:41;;;;;;;16.17;12.60;;;-1.40;99.90;;;;;;4998834;28;20297;-81
2023/03/02 06:15:07;;;;;;;12.73;11.43;;;-1.50;99.90;;;;;;4998669;28;20203;-80
2023/03/02 06:17:33;;;;;;;13.93;12.37;;;-1.50;99.90;;;;;;4999528;28;20183;-80
2023/03/02 06:19:59;;;;;;;13.97;11.70;;;-1.60;99.90;;;;;;4999668;28;20233;-82
2023/03/02 06:22:24;;;;;;;13.13;11.60;;;-1.60;99.90;;;;;;4998926;28;20753;-82
2023/03/02 06:24:50;;;;;;;12.83;11.50;;;-1.60;99.90;;;;;;4998842;28;20175;-82
2023/03/02 06:27:17;;;;;;;12.93;11.63;;;-1.70;99.90;;;;;;5003686;28;20195;-82
2023/03/02 06:29:42;;;;;;;13.90;12.07;;;-1.60;99.90;;;;;;5005709;28;20183;-82
2023/03/02 06:32:09;;;;;;;21.73;16.17;;;-1.60;99.90;;;;;;5022400;28;20203;-82
2023/03/02 06:34:34;;;;;;;22.13;17.13;;;-1.60;99.90;;;;;;5002136;28;20184;-85
2023/03/02 06:37:00;;;;;;;21.00;14.50;;;-1.50;99.90;;;;;;5018357;28;20533;-84
2023/03/02 06:39:26;;;;;;;23.77;18.50;;;-1.40;99.90;;;;;;5000833;28;20207;-82
2023/03/02 06:41:52;;;;;;;17.43;13.90;;;-1.30;99.90;;;;;;4998935;28;20208;-83
2023/03/02 06:44:18;;;;;;;16.70;14.60;;;-1.30;99.90;;;;;;4999697;28;20574;-82
2023/03/02 06:46:44;;;;;;;19.10;13.43;;;-1.20;99.90;;;;;;5018274;28;20183;-83
2023/03/02 06:49:10;;;;;;;15.17;13.43;;;-1.10;99.90;;;;;;5017690;28;20180;-83
2023/03/02 06:51:36;;;;;;;13.93;12.53;;;-1.00;99.90;;;;;;4999566;28;20544;-83
2023/03/02 06:54:03;;;;;;;12.83;11.53;;;-0.90;99.90;;;;;;4998855;28;20203;-83
2023/03/02 06:56:29;;;;;;;15.77;12.83;;;-0.80;99.90;;;;;;4999179;28;20179;-83
2023/03/02 06:58:54;;;;;;;14.20;11.50;;;-0.80;99.90;;;;;;5016512;28;20176;-83
2023/03/02 07:01:20;;;;;;;13.97;12.47;;;-0.70;99.90;;;;;;4998411;28;20219;-83
2023/03/02 07:03:46;;;;;;;14.47;12.30;;;-0.70;99.90;;;;;;4998532;28;20645;-83
2023/03/02 07:06:12;;;;;;;14.40;12.63;;;-0.60;99.90;;;;;;4998469;28;20592;-83
2023/03/02 07:08:39;;;;;;;12.83;11.63;;;-0.50;99.90;;;;;;4998383;28;20183;-83
2023/03/02 07:11:07;;;;;;;14.27;12.37;;;-0.50;99.90;;;;;;4998168;28;20183;-83
2023/03/02 07:13:33;;;;;;;14.67;11.87;;;-0.40;99.90;;;;;;5000071;28;20579;-83
2023/03/02 07:15:58;;;;;;;13.53;12.00;;;-0.40;99.90;;;;;;5019521;28;20214;-83
2023/03/02 07:18:24;;;;;;;13.60;12.20;;;-0.30;99.90;;;;;;5019834;28;20543;-84
2023/03/02 07:20:50;;;;;;;14.97;11.80;;;-0.20;99.90;;;;;;5001577;28;20214;-84
2023/03/02 07:23:15;;;;;;;15.33;12.17;;;-0.10;99.90;;;;;;5018980;28;20362;-84
2023/03/02 07:25:41;;;;;;;13.37;12.07;;;0.00;99.90;;;;;;5002045;28;20176;-79
2023/03/02 07:28:07;;;;;;;15.13;12.20;;;0.10;99.90;;;;;;5001458;28;20202;-79
2023/03/02 07:30:32;;;;;;;13.00;11.60;;;0.10;99.90;;;;;;5018797;28;20199;-79
2023/03/02 07:32:58;;;;;;;13.80;12.33;;;0.20;99.90;;;;;;5001406;28;20656;-79
2023/03/02 07:35:24;;;;;;;13.20;11.80;;;0.30;99.90;;;;;;5018453;28;20172;-79
2023/03/02 07:37:51;;;;;;;13.60;10.57;;;0.30;99.90;;;;;;4999814;28;20257;-79
2023/03/02 07:40:17;;;;;;;12.80;11.17;;;0.40;99.90;;;;;;4999860;28;20180;-79
2023/03/02 07:42:43;;;;;;;13.13;11.80;;;0.50;99.90;;;;;;5018604;28;20257;-81
2023/03/02 07:45:10;;;;;;;13.13;11.77;;;0.60;99.90;;;;;;5017644;28;20633;-81
2023/03/02 07:47:36;;;;;;;13.40;11.53;;;0.70;99.90;;;;;;4999804;28;20668;-81
2023/03/02 07:50:02;;;;;;;12.70;11.37;;;1.10;99.90;;;;;;4999137;28;20225;-81
2023/03/02 07:52:29;;;;;;;12.73;11.37;;;1.50;99.90;;;;;;5017051;28;20188;-81
2023/03/02 07:54:55;;;;;;;15.10;12.10;;;1.70;99.90;;;;;;4999903;28;20203;-81
2023/03/02 07:57:21;;;;;;;14.50;13.07;;;2.00;99.90;;;;;;4999239;28;20186;-81
2023/03/02 07:59:47;;;;;;;14.70;13.20;;;2.20;99.90;;;;;;5018006;28;20251;-81
2023/03/02 08:02:14;;;;;;;15.63;12.27;;;2.30;99.90;;;;;;5000739;28;20195;-81
2023/03/02 08:04:40;;;;;;;15.67;12.10;;;2.40;99.90;;;;;;5000612;28;20167;-81
2023/03/02 08:07:06;;;;;;;17.53;12.37;;;2.50;99.90;;;;;;5018163;28;20595;-81
2023/03/02 08:09:32;;;;;;;15.30;12.67;;;2.50;99.90;;;;;;5000486;28;20184;-81
2023/03/02 08:11:58;;;;;;;14.13;11.17;;;2.70;99.90;;;;;;5017529;28;20651;-81
2023/03/02 08:14:24;;;;;;;12.70;11.37;;;2.80;99.90;;;;;;5000330;28;20583;-81
2023/03/02 08:16:51;;;;;;;17.70;14.43;;;2.90;99.90;;;;;;5017919;28;20255;-81
2023/03/02 08:19:18;;;;;;;17.37;12.37;;;3.10;99.90;;;;;;4999778;28;20180;-81
2023/03/02 08:21:44;;;;;;;15.47;12.60;;;3.10;99.90;;;;;;4998956;28;20208;-81
2023/03/02 08:24:10;;;;;;;13.90;12.40;;;3.20;99.90;;;;;;4998932;28;20290;-81
2023/03/02 08:26:36;;;;;;;14.00;11.57;;;3.30;99.90;;;;;;5016987;28;20175;-81
2023/03/02 08:29:02;;;;;;;17.23;13.30;;;3.40;99.90;;;;;;4999380;28;20183;-80
2023/03/02 08:31:28;;;;;;;14.47;11.93;;;3.60;99.90;;;;;;4998952;28;20234;-80
2023/03/02 08:33:54;;;;;;;22.43;14.37;;;3.70;99.90;;;;;;4998945;28;20196;-80
2023/03/02 08:36:21;;;;;;;19.33;12.97;;;3.90;99.90;;;;;;4998781;28;20234;-80
2023/03/02 08:38:47;;;;;;;14.60;11.50;;;4.00;99.90;;;;;;5016602;28;20211;-80
2023/03/02 08:41:19;;;;;;;21.67;14.53;;;4.10;99.90;;;;;;5016492;28;20176;-80
2023/03/02 08:43:45;;;;;;;20.03;12.43;;;4.20;99.90;;;;;;4998597;28;20294;-80
2023/03/02 08:46:13;;;;;;;12.97;10.73;;;4.20;99.90;;;;;;4998788;28;20184;-80
2023/03/02 08:48:39;;;;;;;14.27;10.50;;;4.40;99.90;;;;;;5016569;28;20637;-80
2023/03/02 08:51:11;;;;;;;12.43;10.90;;;4.60;99.90;;;;;;5016477;28;20218;-80
2023/03/02 08:53:39;;;;;;;16.80;11.47;;;4.60;99.90;;;;;;4998705;28;20673;-80
2023/03/02 08:56:13;;;;;;;14.63;13.03;;;4.70;99.90;;;;;;5016374;28;20175;-80
2023/03/02 08:58:39;;;;;;;14.17;10.00;;;4.80;99.90;;;;;;5016528;28;20167;-80
2023/03/02 09:01:04;;;;;;;11.67;10.57;;;4.80;99.90;;;;;;4998769;28;20666;-80
2023/03/02 09:03:30;;;;;;;13.00;10.50;;;4.90;99.90;;;;;;4998463;28;20218;-80
2023/03/02 09:05:56;;;;;;;13.47;11.00;;;4.90;99.90;;;;;;4998673;28;20706;-80
2023/03/02 09:08:22;;;;;;;11.10;9.90;;;4.90;99.90;;;;;;4998550;28;20267;-80
2023/03/02 09:10:48;;;;;;;11.40;10.00;;;5.00;99.90;;;;;;4999889;28;20168;-80
2023/03/02 09:13:13;;;;;;;12.50;10.80;;;5.00;99.90;;;;;;5003855;28;20211;-80
2023/03/02 09:15:39;;;;;;;10.87;9.73;;;5.00;99.90;;;;;;5021030;28;20172;-80
2023/03/02 09:18:05;;;;;;;11.93;10.20;;;5.10;99.90;;;;;;5003147;28;20250;-81
2023/03/02 09:20:32;;;;;;;13.20;10.50;;;5.20;99.90;;;;;;5019621;28;20191;-81
2023/03/02 09:22:58;;;;;;;13.73;10.67;;;5.20;99.90;;;;;;5001684;28;20223;-81
2023/03/02 09:25:24;;;;;;;12.10;10.37;;;5.40;99.90;;;;;;5001637;28;20176;-81
2023/03/02 09:27:49;;;;;;;13.37;10.57;;;5.40;99.90;;;;;;5001630;28;20265;-81
2023/03/02 09:30:15;;;;;;;12.30;10.53;;;5.40;99.90;;;;;;5001017;28;20206;-81
2023/03/02 09:32:41;;;;;;;14.37;9.67;;;5.50;99.90;;;;;;5000992;28;20204;-81
2023/03/02 09:35:07;;;;;;;13.13;10.63;;;5.50;99.90;;;;;;5000006;28;20211;-81
2023/03/02 09:37:34;;;;;;;11.93;9.83;;;5.70;99.90;;;;;;5000276;28;20179;-80
2023/03/02 09:39:59;;;;;;;11.57;9.87;;;5.60;99.90;;;;;;5000486;28;20543;-80
2023/03/02 09:42:47;;;;;;;13.63;10.40;;;5.80;99.90;;;;;;5017769;28;20194;-80
2023/03/02 09:45:49;;;;;;;14.97;9.87;;;5.80;99.90;;;;;;4999707;28;20175;-80
2023/03/02 09:48:46;;;;;;;13.07;9.77;;;5.80;99.90;;;;;;4999876;28;20179;-81
2023/03/02 09:51:36;;;;;;;12.67;10.30;;;5.90;99.90;;;;;;4999667;28;20598;-81
2023/03/02 09:54:12;;;;;;;12.73;9.80;;;6.00;99.90;;;;;;4999505;28;20210;-81
2023/03/02 09:56:46;;;;;;;11.00;9.60;;;6.00;99.90;;;;;;4999215;28;20546;-81
2023/03/02 09:59:28;;;;;;;13.47;10.23;;;6.00;99.90;;;;;;4999428;28;20223;-81
2023/03/02 10:02:14;;;;;;;12.30;9.93;;;6.00;99.90;;;;;;4998833;28;20222;-81
2023/03/02 10:05:03;;;;;;;14.77;10.60;;;6.10;99.90;;;;;;4999419;28;20265;-81
2023/03/02 10:07:31;;;;;;;14.97;10.40;;;6.00;99.90;;;;;;4999043;28;20253;-81
2023/03/02 10:10:17;;;;;;;13.73;9.97;;;6.20;99.90;;;;;;5016987;28;20175;-81
2023/03/02 10:13:19;;;;;;;11.30;9.87;;;6.30;99.90;;;;;;4991961;28;20664;-81
2023/03/02 10:15:57;;;;;;;10.27;9.03;;;6.40;99.90;;;;;;4977807;28;20202;-81
2023/03/02 10:18:27;;;;;;;12.27;9.77;;;6.50;99.90;;;;;;4998945;28;20259;-81
2023/03/02 10:21:08;;;;;;;12.07;10.37;;;6.50;99.90;;;;;;4999241;28;20187;-81
2023/03/02 10:24:06;;;;;;;13.57;10.27;;;6.40;99.90;;;;;;4998318;28;20219;-81
2023/03/02 10:26:37;;;;;;;11.73;9.87;;;6.30;99.90;;;;;;4987259;28;20637;-81
2023/03/02 10:29:27;;;;;;;12.83;10.60;;;6.30;99.90;;;;;;5003541;28;20255;-80
2023/03/02 10:32:11;;;;;;;12.63;9.60;;;6.40;99.90;;;;;;5027720;28;20164;-80
2023/03/02 10:34:37;;;;;;;14.47;9.93;;;6.40;99.90;;;;;;5007082;28;20195;-80
2023/03/02 10:37:20;;;;;;;12.80;9.67;;;6.40;99.90;;;;;;5000230;28;20249;-80
2023/03/02 10:39:46;;;;;;;11.70;9.87;;;6.50;99.90;;;;;;5017821;28;20183;-81
2023/03/02 10:42:24;;;;;;;12.80;9.63;;;6.50;99.90;;;;;;4999927;28;20208;-81
2023/03/02 10:44:54;;;;;;;10.03;8.83;;;6.60;99.90;;;;;;5001996;28;20242;-81
2023/03/02 10:47:25;;;;;;;11.80;9.43;;;6.60;99.90;;;;;;5005775;28;20268;-81
2023/03/02 10:49:52;;;;;;;11.07;9.37;;;6.80;99.90;;;;;;5006672;28;20633;-81
2023/03/02 10:52:21;;;;;;;10.97;9.80;;;6.80;99.90;;;;;;5002247;28;20227;-81
2023/03/02 10:54:47;;;;;;;12.13;10.00;;;6.90;99.90;;;;;;5002313;28;20194;-81
2023/03/02 10:57:35;;;;;;;12.30;9.03;;;7.00;99.90;;;;;;5002238;28;20618;-81
2023/03/02 11:00:23;;;;;;;11.70;9.27;;;7.10;99.90;;;;;;5001597;28;20190;-81
2023/03/02 11:02:53;;;;;;;12.03;9.33;;;7.20;99.90;;;;;;5001607;28;20582;-81
2023/03/02 11:05:21;;;;;;;9.27;8.30;;;7.40;99.90;;;;;;5000960;28;20636;-81
2023/03/02 11:07:59;;;;;;;13.83;9.53;;;7.60;99.90;;;;;;5001772;28;20688;-81
2023/03/02 11:10:36;;;;;;;12.27;9.50;;;7.80;99.90;;;;;;5000476;28;20179;-81
2023/03/02 11:13:16;;;;;;;11.83;9.93;;;7.90;99.90;;;;;;5000378;28;20200;-81
2023/03/02 11:15:50;;;;;;;10.47;8.90;;;8.00;99.90;;;;;;5000589;28;20640;-81
2023/03/02 11:18:19;;;;;;;10.90;9.30;;;8.20;99.90;;;;;;5018181;28;20190;-81
2023/03/02 11:20:48;;;;;;;10.27;8.63;;;8.40;99.90;;;;;;5019414;28;20164;-81
2023/03/02 11:23:22;;;;;;;12.17;8.80;;;8.40;99.90;;;;;;5001138;28;20273;-81
2023/03/02 11:25:59;;;;;;;12.50;8.13;;;8.50;99.90;;;;;;5001328;28;20180;-81
2023/03/02 11:28:36;;;;;;;11.17;8.37;;;8.70;99.90;;;;;;5018629;28;20164;-81
2023/03/02 11:31:09;;;;;;;9.63;8.03;;;8.70;99.90;;;;;;5000024;28;20551;-81
2023/03/02 11:33:43;;;;;;;9.87;7.67;;;8.80;99.90;;;;;;5000083;28;20651;-81
2023/03/02 11:36:19;;;;;;;9.47;8.13;;;8.90;99.90;;;;;;5000348;28;20663;-81
2023/03/02 11:38:53;;;;;;;10.23;7.90;;;9.00;99.90;;;;;;5018278;28;20616;-81
2023/03/02 11:41:40;;;;;;;10.37;7.70;;;9.10;99.90;;;;;;5017979;28;20597;-81
2023/03/02 11:44:16;;;;;;;11.47;8.53;;;9.30;99.90;;;;;;5017348;28;20203;-81
2023/03/02 11:46:56;;;;;;;8.97;7.70;;;9.30;99.90;;;;;;5018246;28;20188;-81
2023/03/02 11:49:35;;;;;;;9.35;7.90;;;9.40;99.90;;;;;;5001333;28;20172;-81
2023/03/02 11:52:01;;;;;;;13.73;8.03;;;9.60;99.90;;;;;;5000379;28;20561;-81
2023/03/02 11:54:51;;;;;;;9.03;7.60;;;9.60;99.90;;;;;;5000113;28;20185;-81
2023/03/02 11:57:33;;;;;;;9.27;7.75;;;9.80;99.90;;;;;;5017478;28;20172;-81
2023/03/02 12:00:00;;;;;;;11.97;7.37;;;10.00;99.90;;;;;;5017043;28;20172;-81
2023/03/02 12:02:26;;;;;;;9.50;7.20;;;10.00;99.90;;;;;;5000654;28;20204;-81
2023/03/02 12:05:22;;;;;;;10.00;7.32;;;10.10;99.90;;;;;;4999849;28;20199;-81
2023/03/02 12:08:14;;;;;;;11.23;7.68;;;10.20;99.90;;;;;;4999627;28;20175;-81
2023/03/02 12:10:42;;;;;;;11.50;7.82;;;10.50;99.90;;;;;;4972962;28;20566;-81
2023/03/02 12:13:22;;;;;;;11.65;8.25;;;10.70;99.90;;;;;;5018559;28;20210;-80
2023/03/02 12:15:52;;;;;;;10.27;7.65;;;10.80;99.90;;;;;;5018024;28;20259;-80
2023/03/02 12:18:20;;;;;;;12.70;8.23;;;10.90;99.90;;;;;;5017280;28;20211;-81
2023/03/02 12:21:05;;;;;;;8.52;7.43;;;11.10;99.90;;;;;;5017580;28;20184;-81
2023/03/02 12:23:35;;;;;;;8.55;7.25;;;11.20;99.90;;;;;;4999090;28;20326;-81
2023/03/02 12:26:18;;;;;;;8.32;6.90;;;11.30;99.90;;;;;;4999459;28;20180;-81
2023/03/02 12:28:57;;;;;;;12.38;7.22;;;11.50;99.90;;;;;;5016908;28;20164;-81
2023/03/02 12:31:23;;;;;;;9.13;6.45;;;11.60;99.90;;;;;;5000031;28;20183;-81
2023/03/02 12:33:51;;;;;;;8.88;6.70;;;11.60;99.90;;;;;;4999141;28;20199;-81
2023/03/02 12:36:38;;;;;;;7.75;6.10;;;11.80;99.90;;;;;;4999160;28;20274;-81
2023/03/02 12:39:15;;;;;;;9.35;6.63;;;11.60;99.90;;;;;;5016935;28;20175;-81
2023/03/02 12:42:10;;;;;;;9.15;6.25;;;11.50;99.90;;;;;;4999751;28;20176;-81
2023/03/02 12:45:03;;;;;;;9.23;6.18;;;11.60;99.90;;;;;;5001199;28;20214;-81
2023/03/02 12:47:30;;;;;;;7.22;6.00;;;11.60;99.90;;;;;;5020615;28;20194;-81